Time;durP1;ratioP1;P1;durP2;ratioP2;P2;SDS_P1;SDS_P2;PMS_P1;PMS_P2;Temp;Humidity;BMP_temperature;BMP_pressure;BME280_temperature;BME280_humidity;BME280_pressure;Samples;Min_cycle;Max_cycle;Signal;HPM_P1;HPM_P2
2021/12/03 00:02:13;;;;;;;24.52;6.18;;;;;;;;;;5070242;28;20029;-81
2021/12/03 00:04:40;;;;;;;23.70;5.85;;;;;;;;;;5049136;28;20464;-81
2021/12/03 00:07:06;;;;;;;35.22;7.90;;;;;;;;;;5077444;28;20043;-81
2021/12/03 00:09:36;;;;;;;21.98;5.13;;;;;;;;;;5071035;28;20471;-82
2021/12/03 00:12:03;;;;;;;13.75;4.32;;;;;;;;;;5047682;28;20376;-81
2021/12/03 00:14:30;;;;;;;12.55;5.95;;;;;;;;;;5070136;28;20024;-81
2021/12/03 00:16:56;;;;;;;10.98;5.22;;;;;;;;;;5062508;28;20021;-82
2021/12/03 00:19:23;;;;;;;5.93;3.17;;;;;;;;;;5064604;28;20020;-82
2021/12/03 00:21:49;;;;;;;7.85;2.95;;;;;;;;;;5069518;28;20103;-83
2021/12/03 00:24:16;;;;;;;6.60;3.03;;;;;;;;;;5044124;28;20037;-82
2021/12/03 00:26:43;;;;;;;5.82;2.70;;;;;;;;;;5043280;28;20028;-81
2021/12/03 00:29:09;;;;;;;7.97;3.10;;;;;;;;;;5059128;28;20471;-80
2021/12/03 00:31:36;;;;;;;10.23;3.00;;;;;;;;;;5063692;28;20029;-82
2021/12/03 00:34:02;;;;;;;9.25;3.58;;;;;;;;;;5061308;28;20314;-82
2021/12/03 00:36:29;;;;;;;8.98;3.70;;;;;;;;;;5066752;28;20083;-81
2021/12/03 00:38:59;;;;;;;8.25;2.97;;;;;;;;;;5061423;28;20480;-81
2021/12/03 00:41:29;;;;;;;9.18;3.67;;;;;;;;;;5063187;28;20086;-81
2021/12/03 00:43:55;;;;;;;13.07;4.32;;;;;;;;;;5044770;28;20044;-81
2021/12/03 00:46:22;;;;;;;14.70;4.50;;;;;;;;;;5063431;28;20036;-81
2021/12/03 00:48:50;;;;;;;17.70;5.43;;;;;;;;;;5064506;28;20553;-81
2021/12/03 00:51:20;;;;;;;12.40;5.65;;;;;;;;;;5064011;28;20069;-81
2021/12/03 00:53:47;;;;;;;21.33;6.57;;;;;;;;;;5064939;28;20032;-81
2021/12/03 00:56:14;;;;;;;15.63;5.53;;;;;;;;;;5062296;28;20028;-82
2021/12/03 00:58:41;;;;;;;17.38;5.57;;;;;;;;;;5069038;28;20071;-82
2021/12/03 01:01:07;;;;;;;12.68;4.78;;;;;;;;;;5062240;28;20048;-81
2021/12/03 01:03:34;;;;;;;12.40;6.07;;;;;;;;;;5062341;28;20025;-81
2021/12/03 01:08:46;;;;;;;18.42;6.20;;;;;;;;;;5062618;28;20031;-82
2021/12/03 01:11:12;;;;;;;19.58;8.48;;;;;;;;;;5065039;28;20032;-81
2021/12/03 01:13:39;;;;;;;29.75;11.30;;;;;;;;;;5062720;28;20024;-82
2021/12/03 01:16:07;;;;;;;35.30;11.43;;;;;;;;;;5070467;28;20131;-81
2021/12/03 01:18:34;;;;;;;44.55;12.05;;;;;;;;;;5046921;28;20460;-81
2021/12/03 01:21:01;;;;;;;33.80;12.40;;;;;;;;;;5071551;28;20031;-82
2021/12/03 01:23:28;;;;;;;30.27;11.05;;;;;;;;;;5055354;28;20448;-82
2021/12/03 01:25:54;;;;;;;30.52;11.85;;;;;;;;;;5062761;28;20153;-82
2021/12/03 01:28:20;;;;;;;51.55;13.85;;;;;;;;;;5064187;28;20048;-81
2021/12/03 01:30:47;;;;;;;41.22;13.55;;;;;;;;;;5068450;28;20056;-82
2021/12/03 01:33:13;;;;;;;42.78;12.77;;;;;;;;;;5047700;28;20074;-82
2021/12/03 01:35:40;;;;;;;57.72;15.40;;;;;;;;;;5070561;28;20048;-83
2021/12/03 01:38:07;;;;;;;43.88;13.25;;;;;;;;;;5059939;28;20043;-82
2021/12/03 01:40:34;;;;;;;30.50;12.43;;;;;;;;;;5064181;28;20032;-83
2021/12/03 01:43:01;;;;;;;37.55;12.43;;;;;;;;;;5045979;28;20025;-82
2021/12/03 01:45:29;;;;;;;30.35;10.88;;;;;;;;;;5072583;28;20028;-82
2021/12/03 01:47:56;;;;;;;38.88;12.82;;;;;;;;;;5043514;28;20025;-81
2021/12/03 01:50:31;;;;;;;39.05;13.27;;;;;;;;;;5050838;28;20078;-81
2021/12/03 01:52:58;;;;;;;53.67;14.40;;;;;;;;;;5061605;28;20032;-81
2021/12/03 01:55:24;;;;;;;40.53;13.20;;;;;;;;;;5067347;28;20064;-82
2021/12/03 01:57:51;;;;;;;31.58;10.00;;;;;;;;;;5070045;28;20074;-82
2021/12/03 02:00:26;;;;;;;32.55;10.90;;;;;;;;;;5062186;28;20021;-83
2021/12/03 02:02:52;;;;;;;41.67;12.20;;;;;;;;;;5047349;28;20115;-82
2021/12/03 02:05:19;;;;;;;34.15;11.68;;;;;;;;;;5042806;28;20056;-84
2021/12/03 02:07:45;;;;;;;28.83;10.35;;;;;;;;;;5048775;28;20101;-81
2021/12/03 02:10:13;;;;;;;35.15;12.00;;;;;;;;;;5067204;28;20103;-81
2021/12/03 02:12:39;;;;;;;29.10;12.82;;;;;;;;;;5070951;28;20464;-83
2021/12/03 02:15:06;;;;;;;29.40;12.00;;;;;;;;;;5066971;28;20048;-82
2021/12/03 02:17:33;;;;;;;32.05;14.02;;;;;;;;;;5042994;28;20025;-82
2021/12/03 02:19:59;;;;;;;28.83;13.32;;;;;;;;;;5065024;28;20148;-81
2021/12/03 02:22:26;;;;;;;31.63;12.70;;;;;;;;;;5065201;28;20021;-83
2021/12/03 02:24:52;;;;;;;30.20;13.63;;;;;;;;;;5065277;28;20027;-84
2021/12/03 02:27:18;;;;;;;28.90;13.32;;;;;;;;;;5063988;28;20020;-83
2021/12/03 02:29:45;;;;;;;31.88;13.48;;;;;;;;;;5045565;28;20025;-82
2021/12/03 02:32:11;;;;;;;24.20;10.85;;;;;;;;;;5064012;28;20535;-83
2021/12/03 02:34:38;;;;;;;21.00;9.80;;;;;;;;;;5066976;28;20052;-82
2021/12/03 02:37:05;;;;;;;15.68;8.02;;;;;;;;;;5064290;28;20099;-82
2021/12/03 02:39:31;;;;;;;21.60;8.15;;;;;;;;;;5065656;28;20021;-82
2021/12/03 02:41:58;;;;;;;21.05;7.32;;;;;;;;;;5062797;28;20023;-81
2021/12/03 02:44:24;;;;;;;17.20;7.90;;;;;;;;;;5065599;28;20541;-83
2021/12/03 02:46:51;;;;;;;20.95;8.15;;;;;;;;;;5061069;28;20078;-82
2021/12/03 02:49:17;;;;;;;15.18;7.82;;;;;;;;;;5065293;28;20021;-82
2021/12/03 02:51:43;;;;;;;16.48;7.63;;;;;;;;;;5054033;28;20120;-81
2021/12/03 02:54:11;;;;;;;17.88;9.00;;;;;;;;;;5059509;28;20379;-83
2021/12/03 02:56:37;;;;;;;26.15;9.90;;;;;;;;;;5072832;28;20107;-82
2021/12/03 02:59:04;;;;;;;25.98;11.20;;;;;;;;;;5068440;28;20356;-82
2021/12/03 03:01:31;;;;;;;25.08;11.85;;;;;;;;;;5081637;28;20024;-84
2021/12/03 03:03:57;;;;;;;23.88;10.85;;;;;;;;;;5074923;28;20033;-82
2021/12/03 03:06:25;;;;;;;22.80;10.30;;;;;;;;;;5061906;28;20039;-81
2021/12/03 03:08:52;;;;;;;22.00;9.35;;;;;;;;;;5060439;28;20048;-83
2021/12/03 03:11:21;;;;;;;86.22;16.55;;;;;;;;;;5044073;28;20517;-83
2021/12/03 03:13:48;;;;;;;33.00;12.15;;;;;;;;;;5059559;28;20028;-83
2021/12/03 03:16:15;;;;;;;29.50;10.68;;;;;;;;;;5061109;28;20024;-82
2021/12/03 03:18:42;;;;;;;27.00;10.30;;;;;;;;;;5060045;28;20029;-82
2021/12/03 03:21:08;;;;;;;36.58;13.30;;;;;;;;;;5066705;28;20164;-81
2021/12/03 03:23:35;;;;;;;29.88;11.70;;;;;;;;;;5060189;28;20047;-82
2021/12/03 03:26:01;;;;;;;33.70;13.07;;;;;;;;;;5064680;28;20095;-83
2021/12/03 03:28:28;;;;;;;47.72;15.02;;;;;;;;;;5061891;28;20031;-81
2021/12/03 03:30:55;;;;;;;40.78;14.13;;;;;;;;;;5039777;28;20055;-82
2021/12/03 03:33:22;;;;;;;43.63;13.70;;;;;;;;;;5058901;28;20029;-82
2021/12/03 03:35:52;;;;;;;38.03;14.02;;;;;;;;;;5042860;28;20403;-82
2021/12/03 03:38:21;;;;;;;33.30;13.38;;;;;;;;;;5064610;28;20021;-82
2021/12/03 03:40:48;;;;;;;41.33;14.32;;;;;;;;;;5061302;28;20090;-81
2021/12/03 03:43:15;;;;;;;43.78;13.63;;;;;;;;;;5059230;28;20039;-82
2021/12/03 03:45:42;;;;;;;42.78;15.13;;;;;;;;;;5057096;28;20126;-82
2021/12/03 03:48:09;;;;;;;31.83;13.85;;;;;;;;;;5061389;28;20082;-83
2021/12/03 03:50:36;;;;;;;43.03;13.65;;;;;;;;;;5058034;28;20380;-81
2021/12/03 03:53:02;;;;;;;40.50;15.15;;;;;;;;;;5059296;28;20059;-82
2021/12/03 03:55:29;;;;;;;46.60;16.33;;;;;;;;;;5059150;28;20017;-82
2021/12/03 03:57:57;;;;;;;44.97;16.67;;;;;;;;;;5059149;28;20033;-82
2021/12/03 04:00:26;;;;;;;53.83;16.95;;;;;;;;;;5044088;28;20033;-82
2021/12/03 04:02:52;;;;;;;54.58;17.27;;;;;;;;;;5062905;28;20028;-82
2021/12/03 04:05:18;;;;;;;61.53;22.25;;;;;;;;;;5055736;28;20029;-81
2021/12/03 04:07:45;;;;;;;63.88;26.60;;;;;;;;;;5032978;28;20032;-82
2021/12/03 04:10:11;;;;;;;116.28;41.03;;;;;;;;;;5063973;28;20519;-82
2021/12/03 04:12:38;;;;;;;109.25;39.88;;;;;;;;;;5041694;28;20078;-82
2021/12/03 04:15:06;;;;;;;109.38;40.88;;;;;;;;;;5053239;28;20111;-81
2021/12/03 04:17:33;;;;;;;88.68;39.90;;;;;;;;;;5057379;28;20060;-81
2021/12/03 04:19:59;;;;;;;79.85;38.22;;;;;;;;;;5061358;28;20060;-81
2021/12/03 04:22:26;;;;;;;79.55;36.95;;;;;;;;;;5062553;28;20024;-82
2021/12/03 04:24:53;;;;;;;98.97;41.47;;;;;;;;;;5046536;28;20093;-84
2021/12/03 04:27:20;;;;;;;95.07;41.25;;;;;;;;;;5055227;28;20091;-83
2021/12/03 04:29:47;;;;;;;110.10;45.22;;;;;;;;;;5055565;28;20480;-81
2021/12/03 04:32:14;;;;;;;124.90;47.97;;;;;;;;;;5039031;28;20032;-83
2021/12/03 04:34:41;;;;;;;127.53;49.67;;;;;;;;;;5057123;28;20051;-83
2021/12/03 04:37:07;;;;;;;123.55;51.58;;;;;;;;;;5057040;28;20514;-83
2021/12/03 04:39:34;;;;;;;145.32;51.10;;;;;;;;;;5056864;28;20029;-81
2021/12/03 04:42:00;;;;;;;86.32;35.65;;;;;;;;;;5059591;28;20037;-82
2021/12/03 04:44:27;;;;;;;67.15;28.17;;;;;;;;;;5059138;28;20028;-82
2021/12/03 04:46:53;;;;;;;81.03;33.13;;;;;;;;;;5059956;28;20059;-82
2021/12/03 04:49:20;;;;;;;106.00;39.10;;;;;;;;;;5057551;28;20021;-83
2021/12/03 04:51:46;;;;;;;80.47;33.22;;;;;;;;;;5040722;28;20038;-81
2021/12/03 04:54:12;;;;;;;71.00;30.10;;;;;;;;;;5061436;28;20543;-84
2021/12/03 04:56:39;;;;;;;77.22;30.83;;;;;;;;;;5055382;28;20017;-83
2021/12/03 04:59:05;;;;;;;61.90;30.50;;;;;;;;;;5061148;28;20024;-84
2021/12/03 05:01:33;;;;;;;67.28;30.45;;;;;;;;;;5060015;28;20039;-84
2021/12/03 05:03:59;;;;;;;57.88;28.75;;;;;;;;;;5058157;28;20031;-82
2021/12/03 05:06:31;;;;;;;49.45;24.95;;;;;;;;;;5038008;28;20064;-82
2021/12/03 05:08:57;;;;;;;52.08;26.33;;;;;;;;;;5049527;28;20338;-82
2021/12/03 05:11:24;;;;;;;42.15;22.27;;;;;;;;;;5057006;28;20494;-83
2021/12/03 05:13:50;;;;;;;45.67;22.27;;;;;;;;;;5035849;28;20175;-83
2021/12/03 05:16:16;;;;;;;42.15;22.90;;;;;;;;;;5059215;28;20028;-83
2021/12/03 05:18:45;;;;;;;41.72;23.08;;;;;;;;;;5056808;28;20028;-83
2021/12/03 05:21:11;;;;;;;46.65;23.08;;;;;;;;;;5056619;28;20659;-82
2021/12/03 05:23:38;;;;;;;59.60;29.05;;;;;;;;;;5062563;28;20025;-82
2021/12/03 05:26:04;;;;;;;81.00;37.50;;;;;;;;;;5061045;28;20048;-84
2021/12/03 05:28:31;;;;;;;118.25;55.72;;;;;;;;;;5058872;28;20036;-82
2021/12/03 05:30:58;;;;;;;109.57;51.70;;;;;;;;;;5052360;28;20309;-83
2021/12/03 05:33:24;;;;;;;105.80;52.65;;;;;;;;;;5053771;28;20021;-83
2021/12/03 05:35:50;;;;;;;102.30;53.75;;;;;;;;;;5038343;28;20037;-85
2021/12/03 05:38:17;;;;;;;101.55;53.63;;;;;;;;;;5039707;28;20028;-81
2021/12/03 05:40:43;;;;;;;109.72;52.38;;;;;;;;;;5042123;28;20029;-81
2021/12/03 05:43:13;;;;;;;95.85;48.28;;;;;;;;;;5037230;28;20382;-83
2021/12/03 05:45:40;;;;;;;94.72;46.70;;;;;;;;;;5047050;28;20099;-81
2021/12/03 05:48:06;;;;;;;80.90;39.25;;;;;;;;;;5042725;28;20106;-83
2021/12/03 05:50:33;;;;;;;65.05;35.17;;;;;;;;;;5046181;28;20029;-84
2021/12/03 05:53:00;;;;;;;61.08;32.92;;;;;;;;;;5048239;28;20033;-83
2021/12/03 05:55:27;;;;;;;54.15;27.25;;;;;;;;;;5045358;28;20060;-82
2021/12/03 05:57:53;;;;;;;43.20;24.27;;;;;;;;;;5044031;28;20698;-83
2021/12/03 06:00:22;;;;;;;42.30;19.98;;;;;;;;;;5053451;28;20062;-82
2021/12/03 06:02:49;;;;;;;45.95;21.60;;;;;;;;;;5050057;28;20056;-82
2021/12/03 06:05:24;;;;;;;37.15;19.00;;;;;;;;;;5055899;28;20024;-81
2021/12/03 06:07:50;;;;;;;34.17;19.15;;;;;;;;;;5056923;28;20036;-82
2021/12/03 06:10:16;;;;;;;36.15;18.20;;;;;;;;;;5051069;28;20014;-83
2021/12/03 06:12:46;;;;;;;37.50;17.95;;;;;;;;;;5047602;28;20112;-82
2021/12/03 06:15:12;;;;;;;32.28;17.98;;;;;;;;;;5042587;28;20393;-83
2021/12/03 06:17:39;;;;;;;40.38;19.67;;;;;;;;;;5041622;28;20024;-83
2021/12/03 06:20:06;;;;;;;42.45;19.13;;;;;;;;;;5039581;28;20025;-82
2021/12/03 06:22:40;;;;;;;33.00;16.17;;;;;;;;;;5045734;28;20103;-84
2021/12/03 06:25:07;;;;;;;34.95;17.15;;;;;;;;;;5048490;28;20021;-83
2021/12/03 06:27:38;;;;;;;28.77;15.80;;;;;;;;;;5042147;28;20029;-83
2021/12/03 06:30:07;;;;;;;30.02;15.65;;;;;;;;;;5037425;28;20024;-82
2021/12/03 06:32:33;;;;;;;30.35;15.18;;;;;;;;;;5035185;28;21285;-82
2021/12/03 06:35:01;;;;;;;31.23;16.08;;;;;;;;;;5039692;28;20116;-84
2021/12/03 06:37:28;;;;;;;27.90;15.85;;;;;;;;;;5047185;28;20121;-83
2021/12/03 06:39:54;;;;;;;31.60;17.75;;;;;;;;;;5051036;28;20040;-82
2021/12/03 06:42:20;;;;;;;37.50;18.73;;;;;;;;;;5047329;28;20119;-84
2021/12/03 06:44:49;;;;;;;37.08;17.88;;;;;;;;;;5041016;28;20070;-84
2021/12/03 06:47:16;;;;;;;33.25;16.77;;;;;;;;;;5039301;28;20512;-82
2021/12/03 06:49:42;;;;;;;34.80;18.42;;;;;;;;;;5046988;28;20033;-83
2021/12/03 06:52:12;;;;;;;49.60;25.85;;;;;;;;;;5050888;28;20358;-81
2021/12/03 06:54:39;;;;;;;58.92;30.05;;;;;;;;;;5043181;28;20037;-81
2021/12/03 06:57:18;;;;;;;60.75;32.05;;;;;;;;;;5047163;28;20040;-83
2021/12/03 06:59:44;;;;;;;62.55;33.30;;;;;;;;;;5044810;28;20013;-83
2021/12/03 07:02:12;;;;;;;59.45;31.45;;;;;;;;;;5047536;28;20086;-82
2021/12/03 07:04:39;;;;;;;56.92;28.80;;;;;;;;;;5043630;28;20072;-84
2021/12/03 07:07:06;;;;;;;61.17;27.73;;;;;;;;;;5044373;28;20139;-83
2021/12/03 07:09:32;;;;;;;47.25;21.90;;;;;;;;;;5045676;28;20033;-82
2021/12/03 07:11:59;;;;;;;36.53;19.33;;;;;;;;;;5043189;28;20175;-82
2021/12/03 07:14:25;;;;;;;35.55;18.67;;;;;;;;;;5044296;28;20053;-83
2021/12/03 07:16:54;;;;;;;32.38;16.75;;;;;;;;;;5043573;28;20020;-83
2021/12/03 07:19:21;;;;;;;42.80;23.50;;;;;;;;;;5049104;28;20032;-82
2021/12/03 07:21:47;;;;;;;34.17;19.85;;;;;;;;;;5051579;28;20234;-84
2021/12/03 07:24:13;;;;;;;47.17;24.48;;;;;;;;;;5050714;28;20087;-83
2021/12/03 07:26:40;;;;;;;31.90;13.90;;;;;;;;;;5041934;28;20029;-81
2021/12/03 07:29:06;;;;;;;26.38;12.82;;;;;;;;;;5049958;28;20051;-83
2021/12/03 07:31:33;;;;;;;19.75;9.48;;;;;;;;;;5041644;28;20029;-83
2021/12/03 07:33:59;;;;;;;17.38;9.95;;;;;;;;;;5045200;28;20037;-83
2021/12/03 07:36:27;;;;;;;20.40;10.32;;;;;;;;;;5053563;28;20044;-82
2021/12/03 07:38:53;;;;;;;17.05;8.65;;;;;;;;;;5046256;28;20021;-83
2021/12/03 07:41:20;;;;;;;17.50;8.30;;;;;;;;;;5053366;28;20483;-83
2021/12/03 07:43:46;;;;;;;17.50;7.10;;;;;;;;;;5040655;28;20043;-83
2021/12/03 07:46:15;;;;;;;24.10;9.55;;;;;;;;;;5057090;28;20040;-83
2021/12/03 07:48:46;;;;;;;16.60;7.30;;;;;;;;;;5032243;28;20032;-82
2021/12/03 07:51:13;;;;;;;16.15;8.35;;;;;;;;;;5052518;28;20029;-82
2021/12/03 07:53:39;;;;;;;18.05;7.28;;;;;;;;;;5061709;28;20264;-83
2021/12/03 07:56:08;;;;;;;17.63;8.05;;;;;;;;;;5060345;28;20047;-83
2021/12/03 07:58:34;;;;;;;19.83;8.82;;;;;;;;;;5062516;28;20074;-82
2021/12/03 08:01:01;;;;;;;19.08;8.80;;;;;;;;;;5048912;28;20178;-84
2021/12/03 08:03:27;;;;;;;14.50;8.85;;;;;;;;;;5064347;28;20031;-82
2021/12/03 08:05:53;;;;;;;21.55;9.38;;;;;;;;;;5062658;28;20028;-83
2021/12/03 08:08:26;;;;;;;18.88;9.10;;;;;;;;;;5061407;28;20086;-83
2021/12/03 08:10:52;;;;;;;19.13;9.63;;;;;;;;;;5058458;28;20028;-83
2021/12/03 08:13:19;;;;;;;19.80;10.07;;;;;;;;;;5055166;28;20376;-82
2021/12/03 08:15:45;;;;;;;24.15;11.32;;;;;;;;;;5063138;28;20351;-82
2021/12/03 08:18:12;;;;;;;25.55;11.52;;;;;;;;;;5063322;28;20032;-82
2021/12/03 08:20:38;;;;;;;26.20;11.93;;;;;;;;;;5063415;28;20103;-84
2021/12/03 08:23:05;;;;;;;26.75;11.85;;;;;;;;;;5063271;28;20033;-83
2021/12/03 08:25:32;;;;;;;27.33;12.25;;;;;;;;;;5067815;28;20083;-82
2021/12/03 08:27:58;;;;;;;24.60;11.63;;;;;;;;;;5066275;28;20052;-82
2021/12/03 08:30:29;;;;;;;28.55;11.63;;;;;;;;;;5048788;28;20028;-83
2021/12/03 08:32:56;;;;;;;27.95;12.10;;;;;;;;;;5046739;28;20027;-83
2021/12/03 08:35:22;;;;;;;29.45;11.80;;;;;;;;;;5068941;28;20094;-85
2021/12/03 08:37:50;;;;;;;24.83;12.77;;;;;;;;;;5060760;28;21250;-82
2021/12/03 08:40:16;;;;;;;36.97;13.23;;;;;;;;;;5065358;28;20035;-82
2021/12/03 08:42:43;;;;;;;25.95;13.52;;;;;;;;;;5059722;28;20394;-84
2021/12/03 08:45:09;;;;;;;29.88;13.65;;;;;;;;;;5064821;28;20096;-83
2021/12/03 08:47:38;;;;;;;30.45;14.48;;;;;;;;;;5063556;28;20028;-85
2021/12/03 08:50:10;;;;;;;36.90;16.17;;;;;;;;;;5064293;28;20600;-82
2021/12/03 08:55:22;;;;;;;32.58;15.02;;;;;;;;;;5060702;28;20076;-82
2021/12/03 08:57:48;;;;;;;41.65;17.65;;;;;;;;;;5068844;28;20037;-83
2021/12/03 09:00:16;;;;;;;35.10;17.00;;;;;;;;;;5048409;28;20380;-82
2021/12/03 09:02:43;;;;;;;39.45;17.88;;;;;;;;;;5066128;28;20025;-82
2021/12/03 09:05:10;;;;;;;38.13;19.02;;;;;;;;;;5067610;28;20452;-82
2021/12/03 09:07:37;;;;;;;43.40;18.50;;;;;;;;;;5066952;28;20100;-82
2021/12/03 09:10:06;;;;;;;41.72;20.00;;;;;;;;;;5067358;28;20021;-82
2021/12/03 09:12:32;;;;;;;45.05;19.73;;;;;;;;;;5060336;28;20050;-82
2021/12/03 09:15:04;;;;;;;39.42;18.80;;;;;;;;;;5062553;28;20016;-83
2021/12/03 09:22:42;;;;;;;32.83;14.68;;;;;;;;;;5070906;28;20029;-83
2021/12/03 09:25:10;;;;;;;29.70;14.48;;;;;;;;;;5071732;28;20546;-84
2021/12/03 09:27:37;;;;;;;36.28;16.40;;;;;;;;;;5047728;28;20143;-83
2021/12/03 09:30:05;;;;;;;30.70;15.10;;;;;;;;;;5050651;28;20040;-82
2021/12/03 09:32:33;;;;;;;38.53;15.95;;;;;;;;;;5069226;28;20484;-84
2021/12/03 09:34:59;;;;;;;36.17;16.20;;;;;;;;;;5066195;28;20044;-84
2021/12/03 09:37:26;;;;;;;32.47;15.07;;;;;;;;;;5067431;28;20012;-82
2021/12/03 09:39:53;;;;;;;37.55;15.02;;;;;;;;;;5051555;28;20098;-82
2021/12/03 09:42:20;;;;;;;36.80;15.20;;;;;;;;;;5066129;28;20115;-83
2021/12/03 09:44:49;;;;;;;34.55;14.00;;;;;;;;;;5064976;28;20107;-82
2021/12/03 09:47:18;;;;;;;35.38;15.18;;;;;;;;;;5066197;28;20102;-82
2021/12/03 09:49:46;;;;;;;39.13;15.43;;;;;;;;;;5066554;28;20081;-82
2021/12/03 09:52:20;;;;;;;32.50;15.07;;;;;;;;;;5051389;28;20419;-81
2021/12/03 09:54:52;;;;;;;31.63;14.75;;;;;;;;;;5068973;28;20451;-84
2021/12/03 09:57:29;;;;;;;38.63;14.98;;;;;;;;;;5062804;28;20035;-82
2021/12/03 10:06:51;;;;;;;44.00;16.10;;;;;;;;;;5036896;28;20486;-82
2021/12/03 10:11:45;;;;;;;44.30;17.38;;;;;;;;;;5060425;28;20048;-83
2021/12/03 10:17:19;;;;;;;43.65;24.10;;;;;;;;;;5061219;28;20129;-83
2021/12/03 10:20:03;;;;;;;46.50;22.88;;;;;;;;;;5062755;28;20028;-82
2021/12/03 10:26:10;;;;;;;54.88;25.33;;;;;;;;;;5061719;28;20082;-82
2021/12/03 10:42:04;;;;;;;47.78;25.35;;;;;;;;;;5058588;28;20050;-82
2021/12/03 10:49:51;;;;;;;45.00;21.70;;;;;;;;;;5063500;28;20024;-82
2021/12/03 10:52:27;;;;;;;43.00;23.10;;;;;;;;;;5077943;28;20033;-83
2021/12/03 10:55:22;;;;;;;51.38;23.52;;;;;;;;;;5058537;28;20040;-83
2021/12/03 10:58:25;;;;;;;50.47;23.35;;;;;;;;;;5076816;28;20025;-83
2021/12/03 11:01:35;;;;;;;44.97;18.75;;;;;;;;;;5070988;28;20044;-82
2021/12/03 11:21:31;;;;;;;49.95;22.38;;;;;;;;;;5059621;28;20044;-83
2021/12/03 11:29:23;;;;;;;77.28;36.15;;;;;;;;;;5059698;28;20463;-84
2021/12/03 12:03:21;;;;;;;86.90;41.40;;;;;;;;;;5059108;28;20036;-81
2021/12/03 13:26:48;;;;;;;101.00;49.72;;;;;;;;;;5072608;28;20024;-83
2021/12/03 14:02:41;;;;;;;148.32;84.80;;;;;;;;;;5061197;28;20044;-83
2021/12/03 14:40:51;;;;;;;96.30;50.75;;;;;;;;;;5072981;28;20094;-82
2021/12/03 14:46:10;;;;;;;78.95;45.50;;;;;;;;;;5057092;28;20040;-82
2021/12/03 14:49:26;;;;;;;81.10;44.13;;;;;;;;;;5065579;28;20361;-82
2021/12/03 14:54:39;;;;;;;85.93;48.53;;;;;;;;;;5066161;28;20102;-83
2021/12/03 14:57:28;;;;;;;91.88;50.95;;;;;;;;;;5058880;28;20403;-82
2021/12/03 15:00:03;;;;;;;90.22;49.25;;;;;;;;;;5057271;28;20029;-82
2021/12/03 15:02:52;;;;;;;89.32;47.28;;;;;;;;;;5072308;28;20105;-83
2021/12/03 15:05:48;;;;;;;90.63;50.35;;;;;;;;;;5067889;28;20464;-84
2021/12/03 15:08:22;;;;;;;104.93;53.67;;;;;;;;;;5072247;28;20382;-83
2021/12/03 15:37:17;;;;;;;103.63;46.45;;;;;;;;;;5082764;28;20011;-82
2021/12/03 15:40:08;;;;;;;83.30;39.30;;;;;;;;;;5066465;28;20025;-86
2021/12/03 16:04:36;;;;;;;63.50;25.30;;;;;;;;;;5063843;28;20039;-83
2021/12/03 16:12:51;;;;;;;74.70;25.15;;;;;;;;;;5061523;28;20040;-82
2021/12/03 16:52:34;;;;;;;80.20;25.10;;;;;;;;;;5062936;28;20086;-81
2021/12/03 16:55:03;;;;;;;91.13;28.73;;;;;;;;;;5059945;28;20016;-83
2021/12/03 16:57:32;;;;;;;70.18;23.92;;;;;;;;;;5054230;28;20048;-83
2021/12/03 17:00:02;;;;;;;85.22;25.05;;;;;;;;;;5063982;28;20408;-81
2021/12/03 17:02:35;;;;;;;97.63;27.00;;;;;;;;;;5061055;28;20033;-82
2021/12/03 17:12:50;;;;;;;87.55;23.75;;;;;;;;;;5059291;28;20033;-83
2021/12/03 17:16:03;;;;;;;85.45;24.10;;;;;;;;;;5059856;28;20041;-83
2021/12/03 17:48:42;;;;;;;102.80;32.28;;;;;;;;;;5076239;28;20028;-82
2021/12/03 17:56:43;;;;;;;86.40;31.25;;;;;;;;;;4997774;28;20018;-82
2021/12/03 17:59:21;;;;;;;96.47;33.90;;;;;;;;;;5047322;28;20032;-82
2021/12/03 18:01:54;;;;;;;97.15;29.42;;;;;;;;;;5076056;28;20105;-81
2021/12/03 18:04:40;;;;;;;90.63;30.58;;;;;;;;;;5070530;28;20017;-82
2021/12/03 18:17:33;;;;;;;94.65;31.48;;;;;;;;;;5046422;28;20025;-82
2021/12/03 18:50:28;;;;;;;102.05;29.70;;;;;;;;;;5043634;28;20032;-81
2021/12/03 18:55:43;;;;;;;93.00;30.10;;;;;;;;;;5046781;28;20024;-82
2021/12/03 18:58:10;;;;;;;104.88;29.25;;;;;;;;;;5045108;28;20479;-81
2021/12/03 19:00:38;;;;;;;88.38;28.92;;;;;;;;;;5042258;28;20032;-81
2021/12/03 19:03:14;;;;;;;87.68;30.65;;;;;;;;;;5047185;28;20024;-82
2021/12/03 19:08:15;;;;;;;94.95;30.50;;;;;;;;;;5045493;28;20028;-81
2021/12/03 19:10:45;;;;;;;95.00;30.02;;;;;;;;;;5050217;28;20021;-81
2021/12/03 19:13:17;;;;;;;100.40;30.00;;;;;;;;;;5025724;28;20025;-80
2021/12/03 19:15:45;;;;;;;91.72;30.23;;;;;;;;;;5047215;28;20029;-81
2021/12/03 19:18:11;;;;;;;101.15;29.23;;;;;;;;;;5044702;28;20104;-81
2021/12/03 19:20:41;;;;;;;109.63;28.98;;;;;;;;;;5040779;28;20452;-84
2021/12/03 19:23:08;;;;;;;89.65;28.77;;;;;;;;;;5047805;28;20021;-82
2021/12/03 19:25:34;;;;;;;90.50;30.92;;;;;;;;;;5046872;28;20037;-81
2021/12/03 19:28:00;;;;;;;91.32;30.20;;;;;;;;;;5045862;28;20049;-83
2021/12/03 19:30:27;;;;;;;103.20;29.80;;;;;;;;;;5050091;28;20056;-82
2021/12/03 19:32:53;;;;;;;96.32;29.90;;;;;;;;;;5050069;28;20087;-81
2021/12/03 19:35:20;;;;;;;104.45;33.30;;;;;;;;;;5060236;28;20040;-82
2021/12/03 19:37:51;;;;;;;100.53;29.52;;;;;;;;;;5062040;28;20048;-82
2021/12/03 19:40:17;;;;;;;85.63;31.25;;;;;;;;;;5063106;28;20020;-81
2021/12/03 19:43:10;;;;;;;96.57;31.38;;;;;;;;;;5062260;28;20558;-80
2021/12/03 19:45:43;;;;;;;101.13;31.40;;;;;;;;;;5061763;28;20064;-81
2021/12/03 19:48:14;;;;;;;92.65;31.25;;;;;;;;;;5065577;28;20094;-82
2021/12/03 19:50:43;;;;;;;95.07;31.52;;;;;;;;;;5061296;28;20499;-81
2021/12/03 19:53:12;;;;;;;91.47;31.60;;;;;;;;;;5062401;28;20037;-82
2021/12/03 19:55:40;;;;;;;107.43;32.40;;;;;;;;;;5062447;28;20023;-82
2021/12/03 19:58:07;;;;;;;95.45;31.70;;;;;;;;;;5044167;28;20107;-82
2021/12/03 20:00:33;;;;;;;93.10;30.75;;;;;;;;;;5062453;28;20032;-82
2021/12/03 20:03:00;;;;;;;93.90;31.98;;;;;;;;;;5058867;28;20073;-83
2021/12/03 20:05:26;;;;;;;100.13;30.67;;;;;;;;;;5061653;28;20320;-82
2021/12/03 20:07:54;;;;;;;95.18;30.08;;;;;;;;;;5061027;28;20104;-82
2021/12/03 20:10:23;;;;;;;86.57;30.83;;;;;;;;;;5067840;28;20028;-82
2021/12/03 20:12:50;;;;;;;86.03;31.50;;;;;;;;;;5061899;28;20021;-81
2021/12/03 20:15:37;;;;;;;85.97;32.05;;;;;;;;;;5063451;28;20067;-82
2021/12/03 20:18:16;;;;;;;103.18;30.45;;;;;;;;;;5061125;28;20404;-82
2021/12/03 20:20:43;;;;;;;101.85;33.28;;;;;;;;;;5062267;28;20115;-82
2021/12/03 20:28:26;;;;;;;104.78;32.63;;;;;;;;;;5067346;28;20044;-82
2021/12/03 20:31:00;;;;;;;113.60;32.67;;;;;;;;;;5047283;28;20036;-82
2021/12/03 20:33:54;;;;;;;106.65;29.98;;;;;;;;;;5061852;28;20443;-83
2021/12/03 20:38:55;;;;;;;100.80;28.10;;;;;;;;;;5065928;28;20046;-81
2021/12/03 20:41:33;;;;;;;103.05;27.85;;;;;;;;;;5065533;28;20021;-82
2021/12/03 20:47:19;;;;;;;98.20;28.27;;;;;;;;;;5042812;28;20031;-82
2021/12/03 20:53:17;;;;;;;100.63;30.58;;;;;;;;;;5062268;28;20063;-81
2021/12/03 21:09:15;;;;;;;123.90;41.75;;;;;;;;;;5071352;28;20039;-81
2021/12/03 21:11:47;;;;;;;112.72;45.13;;;;;;;;;;5071411;28;20479;-82
2021/12/03 21:14:24;;;;;;;113.80;41.75;;;;;;;;;;5072911;28;20075;-82
2021/12/03 21:19:48;;;;;;;124.05;42.05;;;;;;;;;;5077080;28;20399;-81
2021/12/03 21:22:18;;;;;;;116.38;39.33;;;;;;;;;;5057120;28;20057;-80
2021/12/03 21:24:47;;;;;;;105.40;33.45;;;;;;;;;;5052742;28;20029;-81
2021/12/03 21:27:19;;;;;;;108.00;37.35;;;;;;;;;;5077227;28;20031;-81
2021/12/03 21:30:12;;;;;;;113.40;33.08;;;;;;;;;;5058800;28;20024;-81
2021/12/03 21:32:50;;;;;;;114.72;36.10;;;;;;;;;;5055046;28;20037;-81
2021/12/03 21:38:25;;;;;;;105.22;33.85;;;;;;;;;;5065437;28;20036;-81
2021/12/03 21:43:29;;;;;;;121.10;33.88;;;;;;;;;;5076392;28;20474;-80
2021/12/03 21:45:56;;;;;;;96.13;31.83;;;;;;;;;;5060492;28;20399;-81
2021/12/03 21:48:22;;;;;;;103.43;31.20;;;;;;;;;;5075896;28;20077;-81
2021/12/03 21:50:52;;;;;;;100.55;32.50;;;;;;;;;;5075144;28;20649;-81
2021/12/03 21:53:19;;;;;;;97.05;32.95;;;;;;;;;;5058213;28;20031;-80
2021/12/03 21:56:24;;;;;;;98.78;32.95;;;;;;;;;;5076275;28;20031;-82
2021/12/03 21:58:51;;;;;;;106.35;33.15;;;;;;;;;;5069747;28;20027;-81
2021/12/03 22:01:18;;;;;;;96.07;29.35;;;;;;;;;;5071823;28;20108;-81
2021/12/03 22:03:44;;;;;;;96.30;31.35;;;;;;;;;;5055429;28;20036;-82
2021/12/03 22:06:11;;;;;;;100.10;30.60;;;;;;;;;;5057595;28;20028;-81
2021/12/03 22:08:37;;;;;;;106.45;32.13;;;;;;;;;;5073816;28;20384;-81
2021/12/03 22:11:04;;;;;;;111.28;31.45;;;;;;;;;;5058740;28;20029;-80
2021/12/03 22:13:30;;;;;;;101.72;31.05;;;;;;;;;;5074657;28;20044;-81
2021/12/03 22:16:01;;;;;;;90.88;31.88;;;;;;;;;;5075589;28;20023;-82
2021/12/03 22:18:28;;;;;;;116.55;32.13;;;;;;;;;;5076209;28;20070;-81
2021/12/03 22:20:55;;;;;;;92.45;30.20;;;;;;;;;;5067419;28;20021;-81